createdAt,value
2018-09-23T00:00:13.771Z,22.00
2018-09-23T00:02:41.583Z,21.87
2018-09-23T00:05:09.407Z,21.85
2018-09-23T00:07:37.140Z,21.79
2018-09-23T00:10:04.955Z,21.61
2018-09-23T00:12:32.786Z,21.68
2018-09-23T00:15:00.607Z,21.71
2018-09-23T00:17:28.343Z,21.64
2018-09-23T00:19:56.091Z,21.61
2018-09-23T00:22:23.889Z,21.55
2018-09-23T00:24:51.605Z,21.40
2018-09-23T00:27:19.412Z,21.34
2018-09-23T00:29:50.969Z,21.35
2018-09-23T00:32:20.605Z,21.41
2018-09-23T00:34:48.436Z,21.50
2018-09-23T00:37:16.154Z,21.48
2018-09-23T00:39:43.944Z,21.46
2018-09-23T00:42:11.655Z,21.52
2018-09-23T00:44:39.433Z,21.53
2018-09-23T00:47:13.823Z,21.47
2018-09-23T00:49:41.588Z,21.35
2018-09-23T00:52:09.390Z,21.26
2018-09-23T00:54:37.255Z,21.25
2018-09-23T00:57:05.048Z,21.22
2018-09-23T00:59:32.847Z,21.18
2018-09-23T01:02:00.592Z,21.22
2018-09-23T01:04:28.435Z,21.32
2018-09-23T01:06:56.203Z,21.29
2018-09-23T01:09:23.975Z,21.32
2018-09-23T01:11:51.693Z,21.21
2018-09-23T01:14:19.431Z,21.06
2018-09-23T01:16:47.148Z,20.70
2018-09-23T01:19:14.915Z,20.97
2018-09-23T01:21:42.674Z,21.08
2018-09-23T01:24:10.446Z,21.03
2018-09-23T01:26:38.207Z,20.97
2018-09-23T01:29:06.127Z,20.79
2018-09-23T01:31:33.944Z,20.88
2018-09-23T01:34:01.704Z,20.92
2018-09-23T01:36:29.629Z,20.80
2018-09-23T01:38:57.383Z,21.01
2018-09-23T01:41:25.139Z,20.98
2018-09-23T01:43:52.907Z,20.88
2018-09-23T01:46:20.705Z,20.93
2018-09-23T01:48:48.440Z,20.97
2018-09-23T01:51:16.198Z,21.05
2018-09-23T01:53:43.996Z,21.09
2018-09-23T01:56:11.730Z,21.13
2018-09-23T01:58:39.478Z,20.97
2018-09-23T02:01:07.291Z,21.26
2018-09-23T02:03:35.060Z,21.33
2018-09-23T02:06:02.834Z,21.32
2018-09-23T02:08:30.628Z,21.26
2018-09-23T02:10:58.346Z,21.26
2018-09-23T02:13:26.126Z,21.25
2018-09-23T02:15:53.927Z,21.05
2018-09-23T02:18:21.731Z,21.00
2018-09-23T02:20:49.539Z,20.67
2018-09-23T02:23:17.275Z,20.73
2018-09-23T02:25:45.003Z,20.66
2018-09-23T02:28:12.773Z,20.56
2018-09-23T02:30:40.644Z,20.47
2018-09-23T02:33:08.419Z,20.56
2018-09-23T02:35:36.220Z,20.55
2018-09-23T02:38:04.095Z,20.58
2018-09-23T02:40:31.870Z,20.49
2018-09-23T02:42:59.614Z,20.63
2018-09-23T02:45:27.381Z,20.67
2018-09-23T02:47:55.058Z,20.67
2018-09-23T02:50:24.246Z,20.72
2018-09-23T02:52:51.971Z,20.72
2018-09-23T02:55:19.782Z,20.78
2018-09-23T02:57:47.626Z,20.64
2018-09-23T03:00:15.403Z,20.59
2018-09-23T03:02:43.171Z,20.56
2018-09-23T03:05:10.939Z,20.59
2018-09-23T03:07:38.747Z,20.52
2018-09-23T03:10:06.570Z,20.47
2018-09-23T03:12:34.356Z,20.66
2018-09-23T03:15:02.183Z,20.72
2018-09-23T03:17:29.960Z,20.75
2018-09-23T03:19:57.708Z,20.60
2018-09-23T03:22:25.432Z,20.86
2018-09-23T03:24:53.189Z,21.19
2018-09-23T03:27:20.872Z,21.28
2018-09-23T03:29:48.694Z,21.59
2018-09-23T03:32:18.074Z,21.70
2018-09-23T03:34:45.794Z,21.64
2018-09-23T03:37:13.621Z,21.51
2018-09-23T03:39:41.419Z,21.54
2018-09-23T03:42:09.174Z,21.35
2018-09-23T03:44:36.959Z,21.43
2018-09-23T03:47:04.755Z,21.46
2018-09-23T03:49:32.615Z,21.21
2018-09-23T03:52:00.408Z,21.31
2018-09-23T03:54:28.124Z,21.14
2018-09-23T03:56:55.888Z,21.18
2018-09-23T03:59:23.713Z,21.40
2018-09-23T04:01:51.511Z,21.13
2018-09-23T04:04:19.235Z,21.23
2018-09-23T04:06:47.010Z,21.42
2018-09-23T04:09:14.762Z,21.43
2018-09-23T04:11:42.506Z,21.67
2018-09-23T04:14:10.242Z,21.44
2018-09-23T04:16:37.998Z,21.74
2018-09-23T04:19:05.895Z,21.92
2018-09-23T04:21:33.695Z,22.15
2018-09-23T04:24:01.402Z,22.14
2018-09-23T04:26:29.253Z,22.33
2018-09-23T04:28:56.980Z,22.53
2018-09-23T04:31:24.731Z,22.55
2018-09-23T04:33:52.519Z,22.79
2018-09-23T04:36:20.371Z,22.87
2018-09-23T04:38:48.106Z,22.94
2018-09-23T04:41:15.827Z,23.09
2018-09-23T04:43:43.630Z,23.17
2018-09-23T04:46:11.367Z,23.10
2018-09-23T04:48:39.148Z,23.21
2018-09-23T04:51:06.979Z,23.14
2018-09-23T04:53:34.727Z,22.89
2018-09-23T04:56:02.494Z,22.98
2018-09-23T04:58:30.249Z,23.23
2018-09-23T05:00:57.971Z,23.24
2018-09-23T05:03:25.703Z,23.42
2018-09-23T05:05:53.587Z,23.51
2018-09-23T05:08:21.399Z,23.64
2018-09-23T05:10:49.172Z,23.74
2018-09-23T05:13:16.959Z,24.16
2018-09-23T05:15:44.686Z,24.21
2018-09-23T05:18:12.525Z,24.65
2018-09-23T05:20:40.334Z,24.88
2018-09-23T05:23:08.010Z,25.20
2018-09-23T05:25:35.760Z,25.39
2018-09-23T05:28:03.511Z,25.19
2018-09-23T05:30:31.280Z,24.66
2018-09-23T05:32:59.115Z,24.47
2018-09-23T05:35:26.977Z,23.44
2018-09-23T05:37:54.834Z,23.23
2018-09-23T05:40:22.645Z,23.25
2018-09-23T05:42:50.579Z,23.15
2018-09-23T05:45:18.366Z,23.24
2018-09-23T05:47:46.094Z,23.10
2018-09-23T05:50:13.906Z,23.12
2018-09-23T05:52:41.643Z,23.52
2018-09-23T05:55:09.369Z,24.24
2018-09-23T05:57:37.196Z,24.97
2018-09-23T06:00:05.112Z,25.69
2018-09-23T06:02:32.894Z,26.32
2018-09-23T06:05:00.743Z,26.65
2018-09-23T06:07:28.532Z,27.47
2018-09-23T06:09:56.316Z,27.60
2018-09-23T06:12:24.075Z,27.64
2018-09-23T06:14:51.811Z,28.01
2018-09-23T06:17:19.543Z,27.50
2018-09-23T06:19:47.344Z,27.02
2018-09-23T06:22:15.131Z,26.74
2018-09-23T06:24:42.907Z,27.22
2018-09-23T06:27:10.720Z,26.92
2018-09-23T06:29:38.440Z,26.84
2018-09-23T06:32:06.268Z,27.34
2018-09-23T06:34:34.071Z,26.21
2018-09-23T06:37:01.853Z,26.91
2018-09-23T06:39:29.707Z,26.28
2018-09-23T06:41:57.571Z,25.84
2018-09-23T06:44:25.280Z,25.48
2018-09-23T06:46:52.992Z,25.97
2018-09-23T06:49:20.755Z,26.29
2018-09-23T06:51:48.599Z,27.21
2018-09-23T06:54:16.388Z,27.66
2018-09-23T06:56:44.241Z,27.24
2018-09-23T06:59:12.043Z,27.52
2018-09-23T07:01:39.836Z,27.84
2018-09-23T07:04:07.575Z,28.28
2018-09-23T07:06:35.271Z,28.33
2018-09-23T07:09:03.451Z,27.34
2018-09-23T07:11:31.240Z,27.34
2018-09-23T07:13:59.011Z,28.13
2018-09-23T07:16:26.714Z,28.43
2018-09-23T07:18:54.484Z,27.92
2018-09-23T07:21:22.233Z,27.49
2018-09-23T07:23:50.022Z,28.33
2018-09-23T07:26:17.795Z,27.35
2018-09-23T07:28:45.532Z,27.32
2018-09-23T07:31:13.379Z,27.85
2018-09-23T07:33:41.223Z,27.99
2018-09-23T07:36:09.020Z,28.16
2018-09-23T07:38:36.797Z,28.03
2018-09-23T07:41:04.526Z,27.81
2018-09-23T07:43:32.265Z,28.07
2018-09-23T07:46:00.011Z,28.34
2018-09-23T07:48:27.726Z,27.99
2018-09-23T07:50:55.516Z,27.70
2018-09-23T07:53:23.246Z,27.53
2018-09-23T07:55:51.058Z,27.75
2018-09-23T07:58:18.802Z,27.25
2018-09-23T08:00:46.554Z,27.92
2018-09-23T08:03:14.355Z,28.13
2018-09-23T08:05:42.080Z,28.55
2018-09-23T08:08:09.880Z,28.87
2018-09-23T08:10:37.726Z,28.45
2018-09-23T08:13:05.680Z,28.80
2018-09-23T08:15:33.458Z,28.38
2018-09-23T08:18:01.451Z,29.53
2018-09-23T08:20:29.333Z,30.39
2018-09-23T08:22:56.984Z,30.87
2018-09-23T08:25:24.823Z,30.25
2018-09-23T08:27:52.591Z,30.18
2018-09-23T08:30:20.455Z,30.75
2018-09-23T08:32:48.269Z,31.31
2018-09-23T08:35:16.120Z,31.42
2018-09-23T08:37:43.907Z,32.13
2018-09-23T08:40:11.746Z,32.57
2018-09-23T08:42:39.471Z,32.89
2018-09-23T08:45:07.325Z,31.73
2018-09-23T08:47:35.135Z,31.69
2018-09-23T08:50:02.967Z,32.17
2018-09-23T08:52:30.759Z,30.80
2018-09-23T08:54:58.546Z,29.72
2018-09-23T08:57:26.336Z,30.00
2018-09-23T08:59:54.125Z,30.54
2018-09-23T09:02:21.952Z,31.57
2018-09-23T09:04:49.757Z,31.93
2018-09-23T09:07:17.538Z,30.93
2018-09-23T09:09:45.398Z,31.70
2018-09-23T09:12:13.201Z,32.11
2018-09-23T09:14:40.971Z,33.04
2018-09-23T09:17:08.799Z,32.55
2018-09-23T09:19:36.616Z,32.22
2018-09-23T09:22:04.457Z,32.34
2018-09-23T09:24:32.323Z,30.19
2018-09-23T09:27:00.140Z,30.85
2018-09-23T09:29:27.958Z,32.48
2018-09-23T09:31:55.788Z,32.62
2018-09-23T09:34:23.702Z,31.36
2018-09-23T09:36:51.656Z,31.62
2018-09-23T09:39:19.508Z,31.20
2018-09-23T09:41:47.363Z,32.79
2018-09-23T09:44:15.272Z,32.80
2018-09-23T09:46:43.090Z,32.10
2018-09-23T09:49:10.902Z,33.13
2018-09-23T09:51:38.677Z,33.62
2018-09-23T09:54:06.571Z,32.71
2018-09-23T09:56:34.386Z,32.44
2018-09-23T09:59:02.170Z,31.61
2018-09-23T10:01:30.011Z,31.40
2018-09-23T10:03:57.879Z,31.86
2018-09-23T10:06:25.699Z,32.21
2018-09-23T10:08:53.566Z,32.34
2018-09-23T10:11:21.346Z,31.92
2018-09-23T10:13:49.162Z,30.85
2018-09-23T10:16:16.989Z,31.83
2018-09-23T10:18:44.800Z,31.17
2018-09-23T10:21:12.592Z,32.14
2018-09-23T10:23:40.780Z,32.34
2018-09-23T10:26:08.315Z,32.53
2018-09-23T10:28:36.121Z,31.72
2018-09-23T10:31:04.034Z,31.94
2018-09-23T10:33:31.818Z,32.34
2018-09-23T10:35:59.672Z,32.70
2018-09-23T10:38:27.512Z,33.08
2018-09-23T10:40:55.336Z,32.78
2018-09-23T10:43:23.118Z,32.98
2018-09-23T10:45:50.957Z,33.94
2018-09-23T10:48:18.838Z,34.30
2018-09-23T10:50:46.605Z,34.08
2018-09-23T10:53:14.466Z,33.19
2018-09-23T10:55:42.301Z,32.09
2018-09-23T10:58:10.120Z,31.76
2018-09-23T11:00:38.037Z,31.56
2018-09-23T11:03:05.816Z,32.22
2018-09-23T11:05:33.641Z,31.51
2018-09-23T11:08:01.476Z,31.54
2018-09-23T11:10:29.305Z,32.01
2018-09-23T11:12:57.133Z,32.36
2018-09-23T11:15:25.166Z,32.89
2018-09-23T11:17:53.094Z,33.81
2018-09-23T11:20:20.880Z,33.28
2018-09-23T11:22:48.748Z,32.91
2018-09-23T11:25:16.572Z,33.26
2018-09-23T11:27:44.375Z,32.65
2018-09-23T11:30:12.240Z,33.02
2018-09-23T11:32:40.062Z,33.68
2018-09-23T11:35:08.240Z,34.58
2018-09-23T11:37:36.143Z,34.83
2018-09-23T11:40:04.330Z,35.12
2018-09-23T11:42:32.129Z,34.54
2018-09-23T11:44:59.970Z,34.34
2018-09-23T11:47:27.800Z,34.79
2018-09-23T11:49:55.595Z,34.52
2018-09-23T11:52:23.530Z,34.30
2018-09-23T11:54:51.352Z,34.10
2018-09-23T11:57:19.179Z,33.65
2018-09-23T11:59:47.234Z,34.29
2018-09-23T12:02:15.195Z,35.28
2018-09-23T12:04:43.004Z,35.26
2018-09-23T12:07:10.833Z,35.24
2018-09-23T12:09:38.623Z,34.38
2018-09-23T12:12:06.453Z,34.52
2018-09-23T12:14:34.303Z,34.86
2018-09-23T12:17:02.130Z,34.35
2018-09-23T12:19:29.964Z,34.87
2018-09-23T12:21:57.793Z,35.05
2018-09-23T12:24:25.585Z,35.84
2018-09-23T12:26:53.384Z,35.77
2018-09-23T12:29:21.244Z,34.50
2018-09-23T12:31:49.032Z,33.67
2018-09-23T12:34:16.883Z,34.21
2018-09-23T12:36:44.707Z,35.07
2018-09-23T12:39:12.505Z,35.99
2018-09-23T12:41:40.518Z,35.68
2018-09-23T12:44:08.809Z,35.16
2018-09-23T12:46:36.588Z,35.21
2018-09-23T12:49:04.417Z,34.62
2018-09-23T12:51:32.257Z,34.00
2018-09-23T12:54:00.049Z,34.06
2018-09-23T12:56:27.875Z,34.23
2018-09-23T12:58:55.713Z,34.26
2018-09-23T13:01:23.529Z,34.16
2018-09-23T13:03:51.310Z,34.34
2018-09-23T13:06:19.143Z,33.73
2018-09-23T13:08:46.897Z,34.28
2018-09-23T13:11:14.686Z,34.65
2018-09-23T13:13:42.544Z,34.71
2018-09-23T13:16:10.330Z,34.55
2018-09-23T13:18:38.148Z,34.92
2018-09-23T13:21:06.075Z,34.33
2018-09-23T13:23:33.917Z,33.88
2018-09-23T13:26:01.713Z,32.91
2018-09-23T13:28:29.544Z,33.23
2018-09-23T13:30:57.356Z,34.24
2018-09-23T13:33:25.129Z,34.80
2018-09-23T13:35:52.929Z,34.87
2018-09-23T13:40:54.033Z,34.32
2018-09-23T13:43:21.844Z,33.85
2018-09-23T13:45:49.704Z,33.26
2018-09-23T13:48:17.562Z,33.04
2018-09-23T13:50:45.352Z,32.94
2018-09-23T13:53:13.134Z,33.33
2018-09-23T13:55:40.982Z,33.59
2018-09-23T13:58:08.770Z,33.40
2018-09-23T14:00:36.572Z,33.73
2018-09-23T14:03:04.458Z,34.24
2018-09-23T14:05:32.249Z,34.14
2018-09-23T14:08:00.070Z,34.15
2018-09-23T14:10:27.898Z,34.34
2018-09-23T14:12:55.698Z,34.37
2018-09-23T14:15:23.505Z,34.46
2018-09-23T14:17:51.315Z,34.21
2018-09-23T14:20:19.121Z,33.87
2018-09-23T14:22:46.877Z,34.03
2018-09-23T14:25:14.707Z,32.76
2018-09-23T14:27:42.473Z,32.32
2018-09-23T14:30:10.246Z,32.64
2018-09-23T14:32:38.074Z,32.68
2018-09-23T14:35:06.027Z,33.20
2018-09-23T14:37:33.802Z,33.62
2018-09-23T14:40:01.649Z,33.39
2018-09-23T14:42:29.534Z,32.55
2018-09-23T14:44:57.327Z,32.67
2018-09-23T14:47:25.233Z,32.19
2018-09-23T14:49:53.022Z,31.82
2018-09-23T14:52:20.817Z,31.51
2018-09-23T14:54:48.843Z,31.61
2018-09-23T14:57:16.429Z,31.70
2018-09-23T14:59:44.215Z,31.99
2018-09-23T15:02:12.065Z,31.97
2018-09-23T15:04:39.882Z,32.00
2018-09-23T15:07:07.701Z,31.71
2018-09-23T15:09:35.567Z,31.72
2018-09-23T15:12:03.385Z,31.57
2018-09-23T15:14:31.186Z,31.84
2018-09-23T15:16:59.029Z,31.65
2018-09-23T15:19:26.842Z,31.36
2018-09-23T15:21:54.713Z,31.22
2018-09-23T15:24:22.600Z,31.31
2018-09-23T15:26:50.391Z,31.11
2018-09-23T15:29:18.206Z,31.06
2018-09-23T15:31:46.016Z,31.00
2018-09-23T15:34:13.774Z,30.53
2018-09-23T15:36:41.542Z,30.59
2018-09-23T15:39:09.365Z,30.30
2018-09-23T15:41:37.645Z,30.18
2018-09-23T15:44:05.728Z,29.81
2018-09-23T15:46:33.592Z,29.59
2018-09-23T15:49:01.360Z,29.26
2018-09-23T15:51:29.103Z,29.30
2018-09-23T15:53:56.880Z,29.25
2018-09-23T15:56:24.687Z,28.99
2018-09-23T15:58:52.425Z,28.90
2018-09-23T16:01:20.211Z,28.78
2018-09-23T16:03:47.956Z,28.54
2018-09-23T16:06:15.694Z,28.00
2018-09-23T16:08:43.488Z,28.21
2018-09-23T16:11:11.171Z,28.34
2018-09-23T16:13:38.942Z,28.28
2018-09-23T16:16:07.278Z,28.13
2018-09-23T16:18:35.189Z,27.75
2018-09-23T16:21:02.961Z,27.63
2018-09-23T16:23:30.852Z,27.40
2018-09-23T16:25:58.778Z,27.11
2018-09-23T16:28:26.526Z,27.16
2018-09-23T16:30:54.340Z,27.14
2018-09-23T16:33:22.085Z,26.94
2018-09-23T16:35:49.864Z,26.73
2018-09-23T16:38:17.691Z,26.64
2018-09-23T16:40:45.515Z,26.47
2018-09-23T16:43:13.300Z,26.36
2018-09-23T16:45:41.128Z,26.20
2018-09-23T16:48:08.851Z,26.08
2018-09-23T16:50:36.661Z,25.98
2018-09-23T16:53:04.555Z,25.84
2018-09-23T16:55:32.323Z,25.75
2018-09-23T16:58:00.077Z,25.72
2018-09-23T17:00:27.909Z,25.72
2018-09-23T17:02:55.665Z,25.86
2018-09-23T17:05:23.649Z,25.97
2018-09-23T17:07:51.487Z,26.02
2018-09-23T17:10:19.351Z,25.99
2018-09-23T17:12:47.168Z,25.85
2018-09-23T17:15:14.997Z,25.79
2018-09-23T17:17:42.752Z,25.54
2018-09-23T17:20:10.514Z,25.65
2018-09-23T17:22:38.286Z,25.65
2018-09-23T17:25:06.068Z,25.76
2018-09-23T17:27:33.844Z,25.86
2018-09-23T17:30:01.707Z,25.92
2018-09-23T17:32:29.602Z,25.92
2018-09-23T17:34:57.406Z,25.86
2018-09-23T17:37:25.276Z,25.79
2018-09-23T17:39:53.027Z,25.73
2018-09-23T17:42:20.843Z,25.70
2018-09-23T17:44:48.690Z,25.46
2018-09-23T17:47:16.494Z,25.38
2018-09-23T17:49:44.264Z,25.28
2018-09-23T17:52:12.047Z,25.24
2018-09-23T17:54:39.807Z,25.18
2018-09-23T17:57:07.559Z,25.11
2018-09-23T17:59:35.396Z,25.11
2018-09-23T18:02:03.319Z,25.03
2018-09-23T18:04:31.028Z,24.98
2018-09-23T18:06:58.861Z,24.89
2018-09-23T18:09:26.623Z,24.90
2018-09-23T18:11:54.428Z,24.83
2018-09-23T18:14:22.199Z,24.76
2018-09-23T18:16:49.907Z,24.69
2018-09-23T18:19:17.616Z,24.70
2018-09-23T18:21:45.417Z,24.71
2018-09-23T18:24:13.203Z,24.67
2018-09-23T18:26:40.975Z,24.66
2018-09-23T18:29:08.772Z,24.66
2018-09-23T18:31:36.583Z,24.67
2018-09-23T18:34:04.378Z,24.68
2018-09-23T18:36:32.176Z,24.73
2018-09-23T18:38:59.931Z,24.79
2018-09-23T18:41:27.614Z,24.78
2018-09-23T18:43:55.429Z,24.76
2018-09-23T18:46:23.213Z,24.49
2018-09-23T18:48:50.955Z,24.46
2018-09-23T18:51:18.797Z,24.55
2018-09-23T18:53:53.063Z,24.67
2018-09-23T18:56:20.895Z,24.92
2018-09-23T18:58:48.667Z,25.00
2018-09-23T19:01:16.471Z,25.05
2018-09-23T19:03:44.281Z,25.18
2018-09-23T19:06:11.988Z,25.28
2018-09-23T19:08:39.751Z,25.29
2018-09-23T19:11:07.539Z,25.33
2018-09-23T19:13:40.666Z,25.38
2018-09-23T19:16:14.179Z,25.41
2018-09-23T19:18:41.931Z,25.29
2018-09-23T19:21:09.682Z,25.05
2018-09-23T19:23:37.772Z,24.92
2018-09-23T19:26:05.748Z,25.09
2018-09-23T19:28:33.555Z,25.18
2018-09-23T19:31:01.343Z,25.19
2018-09-23T19:33:29.084Z,25.26
2018-09-23T19:35:56.871Z,25.19
2018-09-23T19:38:24.647Z,25.31
2018-09-23T19:40:52.391Z,25.28
2018-09-23T19:43:20.136Z,25.40
2018-09-23T19:45:47.994Z,25.42
2018-09-23T19:48:15.754Z,25.42
2018-09-23T19:50:43.483Z,25.31
2018-09-23T19:53:11.245Z,25.28
2018-09-23T19:55:38.958Z,25.39
2018-09-23T19:58:06.745Z,25.45
2018-09-23T20:00:34.539Z,25.43
2018-09-23T20:03:02.407Z,25.30
2018-09-23T20:05:30.126Z,25.22
2018-09-23T20:07:57.852Z,25.29
2018-09-23T20:10:25.580Z,25.39
2018-09-23T20:12:53.347Z,25.24
2018-09-23T20:15:21.167Z,25.29
2018-09-23T20:17:48.905Z,25.38
2018-09-23T20:20:16.696Z,25.31
2018-09-23T20:22:44.526Z,25.29
2018-09-23T20:25:12.446Z,25.33
2018-09-23T20:27:40.266Z,25.40
2018-09-23T20:30:08.075Z,25.42
2018-09-23T20:32:35.862Z,25.28
2018-09-23T20:35:04.758Z,25.34
2018-09-23T20:37:32.560Z,25.29
2018-09-23T20:40:00.421Z,25.29
2018-09-23T20:42:28.143Z,25.40
2018-09-23T20:44:55.949Z,25.37
2018-09-23T20:47:23.719Z,25.31
2018-09-23T20:49:51.449Z,25.23
2018-09-23T20:52:19.282Z,25.25
2018-09-23T20:54:47.051Z,25.27
2018-09-23T20:57:14.735Z,25.08
2018-09-23T20:59:42.522Z,24.63
2018-09-23T21:02:10.343Z,24.40
2018-09-23T21:04:38.052Z,24.02
2018-09-23T21:07:05.943Z,23.69
2018-09-23T21:09:33.703Z,23.49
2018-09-23T21:12:01.525Z,23.36
2018-09-23T21:14:29.373Z,23.49
2018-09-23T21:16:57.186Z,23.38
2018-09-23T21:19:24.951Z,23.49
2018-09-23T21:21:52.776Z,23.55
2018-09-23T21:24:20.494Z,23.41
2018-09-23T21:26:50.009Z,23.37
2018-09-23T21:29:17.827Z,23.35
2018-09-23T21:31:45.656Z,23.17
2018-09-23T21:34:13.384Z,22.98
2018-09-23T21:36:41.422Z,22.96
2018-09-23T21:39:10.008Z,23.13
2018-09-23T21:41:37.803Z,23.05
2018-09-23T21:44:05.750Z,22.87
2018-09-23T21:46:33.572Z,22.91
2018-09-23T21:49:01.580Z,23.01
2018-09-23T21:51:30.377Z,23.05
2018-09-23T21:53:58.172Z,23.17
2018-09-23T21:56:26.063Z,23.17
2018-09-23T21:58:53.972Z,23.26
2018-09-23T22:01:21.695Z,23.22
2018-09-23T22:03:49.410Z,23.26
2018-09-23T22:06:17.180Z,23.17
2018-09-23T22:08:44.863Z,23.29
2018-09-23T22:11:12.623Z,23.35
2018-09-23T22:13:40.485Z,23.55
2018-09-23T22:16:08.184Z,23.36
2018-09-23T22:18:35.914Z,23.73
2018-09-23T22:21:03.720Z,24.02
2018-09-23T22:23:31.548Z,24.13
2018-09-23T22:25:59.226Z,24.15
2018-09-23T22:28:27.113Z,24.20
2018-09-23T22:30:54.848Z,24.21
2018-09-23T22:33:22.607Z,24.00
2018-09-23T22:35:50.343Z,24.22
2018-09-23T22:38:18.139Z,24.04
2018-09-23T22:40:45.934Z,24.01
2018-09-23T22:43:13.740Z,24.12
2018-09-23T22:45:41.548Z,24.08
2018-09-23T22:48:09.290Z,23.86
2018-09-23T22:50:37.071Z,23.67
2018-09-23T22:53:04.795Z,23.64
2018-09-23T22:55:32.556Z,23.99
2018-09-23T22:58:00.360Z,24.12
2018-09-23T23:00:28.127Z,24.22
2018-09-23T23:02:55.868Z,24.16
2018-09-23T23:05:23.643Z,24.17
2018-09-23T23:07:51.446Z,24.13
2018-09-23T23:10:19.177Z,24.19
2018-09-23T23:12:46.950Z,24.20
2018-09-23T23:15:14.731Z,24.09
2018-09-23T23:17:42.512Z,24.00
2018-09-23T23:20:10.259Z,23.71
2018-09-23T23:22:37.992Z,23.34
2018-09-23T23:25:05.911Z,22.81
2018-09-23T23:27:33.650Z,22.58
2018-09-23T23:30:01.387Z,22.56
2018-09-23T23:32:29.113Z,22.42
2018-09-23T23:34:56.899Z,22.44
2018-09-23T23:37:24.660Z,22.36
2018-09-23T23:39:52.403Z,22.34
2018-09-23T23:42:20.146Z,22.32
2018-09-23T23:44:47.898Z,22.28
2018-09-23T23:47:15.634Z,22.30
2018-09-23T23:49:43.430Z,22.19
2018-09-23T23:52:11.131Z,22.22
2018-09-23T23:54:38.914Z,22.27
2018-09-23T23:57:06.716Z,22.20
2018-09-23T23:59:34.504Z,22.32
